createdAt,value
2019-03-20T00:02:19.302Z,7.05
2019-03-20T00:04:49.922Z,7.01
2019-03-20T00:07:19.647Z,6.95
2019-03-20T00:09:48.909Z,6.89
2019-03-20T00:12:18.280Z,6.88
2019-03-20T00:14:47.311Z,7.03
2019-03-20T00:17:16.321Z,6.99
2019-03-20T00:19:45.443Z,6.97
2019-03-20T00:22:15.163Z,7.06
2019-03-20T00:24:44.205Z,7.18
2019-03-20T00:27:13.621Z,7.19
2019-03-20T00:29:42.692Z,7.32
2019-03-20T00:32:12.078Z,7.34
2019-03-20T00:34:41.151Z,7.52
2019-03-20T00:37:10.149Z,7.43
2019-03-20T00:39:39.195Z,7.38
2019-03-20T00:42:08.204Z,7.35
2019-03-20T00:44:37.248Z,7.26
2019-03-20T00:47:06.285Z,7.67
2019-03-20T00:49:35.315Z,7.55
2019-03-20T00:52:04.678Z,7.51
2019-03-20T00:54:33.699Z,7.47
2019-03-20T00:57:03.099Z,7.39
2019-03-20T00:59:32.161Z,7.36
2019-03-20T01:02:01.165Z,7.30
2019-03-20T01:04:30.257Z,7.26
2019-03-20T01:06:59.294Z,7.26
2019-03-20T01:09:28.363Z,7.29
2019-03-20T01:11:57.729Z,7.27
2019-03-20T01:14:27.129Z,7.29
2019-03-20T01:16:56.833Z,7.08
2019-03-20T01:19:25.843Z,7.26
2019-03-20T01:21:54.888Z,7.24
2019-03-20T01:24:23.921Z,7.30
2019-03-20T01:26:53.308Z,7.25
2019-03-20T01:29:22.668Z,7.18
2019-03-20T01:31:51.673Z,7.14
2019-03-20T01:34:21.028Z,7.13
2019-03-20T01:36:50.030Z,7.10
2019-03-20T01:39:19.047Z,7.35
2019-03-20T01:41:48.054Z,7.18
2019-03-20T01:44:17.117Z,7.06
2019-03-20T01:46:46.211Z,7.09
2019-03-20T01:49:15.788Z,7.19
2019-03-20T01:51:44.803Z,7.51
2019-03-20T01:54:13.830Z,7.62
2019-03-20T01:56:42.849Z,7.50
2019-03-20T01:59:12.162Z,7.64
2019-03-20T02:01:41.767Z,7.72
2019-03-20T02:04:11.273Z,7.76
2019-03-20T02:06:40.265Z,7.70
2019-03-20T02:09:09.282Z,7.62
2019-03-20T02:11:38.683Z,7.43
2019-03-20T02:14:07.687Z,7.34
2019-03-20T02:16:36.983Z,7.27
2019-03-20T02:19:06.343Z,7.25
2019-03-20T02:21:35.978Z,7.20
2019-03-20T02:24:05.821Z,7.15
2019-03-20T02:26:34.822Z,7.11
2019-03-20T02:29:03.840Z,7.11
2019-03-20T02:31:32.866Z,7.33
2019-03-20T02:34:02.246Z,7.24
2019-03-20T02:36:31.246Z,7.29
2019-03-20T02:39:00.307Z,7.24
2019-03-20T02:41:29.662Z,7.20
2019-03-20T02:43:59.045Z,7.20
2019-03-20T02:46:28.364Z,7.19
2019-03-20T02:48:58.070Z,7.14
2019-03-20T02:51:27.558Z,7.09
2019-03-20T02:53:56.957Z,7.38
2019-03-20T02:56:26.291Z,7.31
2019-03-20T02:58:55.298Z,7.28
2019-03-20T03:01:24.332Z,7.47
2019-03-20T03:03:53.375Z,7.49
2019-03-20T03:06:22.370Z,7.46
2019-03-20T03:08:51.437Z,7.36
2019-03-20T03:11:20.426Z,7.32
2019-03-20T03:13:49.442Z,7.19
2019-03-20T03:16:18.469Z,7.24
2019-03-20T03:18:47.683Z,7.36
2019-03-20T03:21:17.018Z,7.32
2019-03-20T03:23:46.311Z,7.34
2019-03-20T03:26:15.675Z,7.52
2019-03-20T03:28:44.749Z,7.50
2019-03-20T03:31:13.756Z,7.37
2019-03-20T03:33:42.794Z,7.18
2019-03-20T03:36:20.980Z,6.91
2019-03-20T03:38:43.187Z,6.73
2019-03-20T03:41:12.631Z,6.59
2019-03-20T03:43:41.654Z,6.58
2019-03-20T03:46:10.698Z,6.68
2019-03-20T03:48:39.687Z,6.55
2019-03-20T03:51:09.037Z,6.58
2019-03-20T03:53:38.065Z,6.58
2019-03-20T03:56:07.093Z,6.63
2019-03-20T03:58:36.122Z,6.64
2019-03-20T04:01:06.022Z,6.57
2019-03-20T04:03:35.040Z,6.61
2019-03-20T04:06:04.049Z,6.60
2019-03-20T04:08:33.435Z,6.67
2019-03-20T04:11:02.470Z,6.70
2019-03-20T04:13:31.453Z,6.61
2019-03-20T04:16:00.477Z,6.51
2019-03-20T04:18:29.479Z,6.54
2019-03-20T04:20:59.149Z,6.49
2019-03-20T04:23:28.549Z,6.60
2019-03-20T04:25:57.822Z,6.43
2019-03-20T04:28:26.872Z,6.51
2019-03-20T04:30:55.902Z,6.51
2019-03-20T04:33:25.211Z,6.48
2019-03-20T04:35:54.222Z,6.46
2019-03-20T04:38:23.246Z,6.39
2019-03-20T04:40:52.685Z,6.40
2019-03-20T04:43:22.338Z,6.52
2019-03-20T04:45:52.030Z,6.47
2019-03-20T04:48:21.101Z,6.57
2019-03-20T04:50:50.111Z,6.51
2019-03-20T04:53:19.716Z,6.60
2019-03-20T04:55:48.738Z,6.53
2019-03-20T04:58:18.270Z,6.49
2019-03-20T05:00:47.331Z,6.53
2019-03-20T05:03:16.348Z,6.75
2019-03-20T05:05:45.661Z,6.51
2019-03-20T05:08:14.692Z,6.25
2019-03-20T05:10:43.723Z,6.19
2019-03-20T05:13:13.109Z,6.17
2019-03-20T05:15:42.149Z,6.32
2019-03-20T05:18:11.201Z,6.26
2019-03-20T05:20:40.924Z,6.13
2019-03-20T05:23:09.941Z,6.03
2019-03-20T05:25:39.313Z,5.96
2019-03-20T05:28:08.640Z,5.93
2019-03-20T05:30:38.014Z,5.81
2019-03-20T05:33:07.060Z,5.95
2019-03-20T05:35:36.094Z,5.88
2019-03-20T05:38:05.113Z,5.84
2019-03-20T05:40:34.167Z,5.74
2019-03-20T05:43:03.189Z,5.68
2019-03-20T05:45:32.524Z,5.58
2019-03-20T05:48:01.559Z,5.50
2019-03-20T05:50:30.573Z,5.51
2019-03-20T05:52:59.577Z,5.44
2019-03-20T05:55:28.591Z,5.48
2019-03-20T05:57:57.594Z,5.52
2019-03-20T06:00:29.501Z,5.56
2019-03-20T06:02:58.861Z,5.58
2019-03-20T06:05:27.918Z,5.59
2019-03-20T06:07:57.027Z,5.54
2019-03-20T06:10:26.064Z,5.72
2019-03-20T06:12:55.489Z,5.81
2019-03-20T06:15:24.731Z,6.18
2019-03-20T06:17:53.837Z,6.00
2019-03-20T06:20:22.881Z,6.12
2019-03-20T06:22:52.039Z,6.06
2019-03-20T06:25:21.769Z,6.12
2019-03-20T06:27:52.910Z,6.09
2019-03-20T06:30:21.608Z,6.01
2019-03-20T06:32:50.638Z,6.06
2019-03-20T06:35:19.805Z,6.12
2019-03-20T06:37:48.868Z,6.14
2019-03-20T06:40:18.008Z,6.47
2019-03-20T06:42:47.150Z,6.61
2019-03-20T06:45:16.552Z,6.73
2019-03-20T06:47:45.591Z,6.67
2019-03-20T06:50:15.250Z,6.59
2019-03-20T06:52:44.602Z,6.61
2019-03-20T06:55:13.634Z,6.51
2019-03-20T06:57:42.958Z,6.85
2019-03-20T07:00:40.769Z,6.70
2019-03-20T07:03:14.146Z,6.96
2019-03-20T07:06:06.918Z,7.15
2019-03-20T07:08:39.984Z,7.54
2019-03-20T07:11:08.765Z,7.51
2019-03-20T07:13:38.169Z,7.41
2019-03-20T07:16:07.170Z,7.51
2019-03-20T07:18:36.538Z,7.55
2019-03-20T07:21:06.190Z,7.60
2019-03-20T07:23:35.225Z,7.61
2019-03-20T07:26:04.566Z,7.76
2019-03-20T07:28:33.969Z,7.58
2019-03-20T07:31:14.330Z,8.05
2019-03-20T07:33:34.145Z,7.88
2019-03-20T07:36:03.242Z,8.14
2019-03-20T07:38:32.264Z,8.27
2019-03-20T07:41:01.272Z,8.36
2019-03-20T07:43:30.291Z,8.62
2019-03-20T07:45:59.372Z,8.88
2019-03-20T07:48:28.776Z,9.24
2019-03-20T07:50:58.156Z,9.32
2019-03-20T07:53:27.110Z,9.35
2019-03-20T07:55:56.219Z,9.57
2019-03-20T07:58:25.571Z,9.44
2019-03-20T08:00:54.594Z,9.59
2019-03-20T08:03:23.651Z,9.34
2019-03-20T08:05:52.654Z,9.73
2019-03-20T08:08:22.409Z,9.59
2019-03-20T08:10:51.890Z,9.97
2019-03-20T08:13:20.927Z,10.01
2019-03-20T08:15:50.438Z,10.06
2019-03-20T08:18:19.453Z,10.26
2019-03-20T08:20:48.524Z,10.15
2019-03-20T08:23:17.852Z,10.36
2019-03-20T08:25:46.909Z,10.35
2019-03-20T08:28:15.929Z,10.57
2019-03-20T08:30:44.952Z,10.50
2019-03-20T08:33:14.335Z,10.68
2019-03-20T08:35:43.363Z,10.68
2019-03-20T08:38:18.289Z,10.94
2019-03-20T08:40:43.606Z,11.05
2019-03-20T08:43:12.982Z,11.02
2019-03-20T08:45:42.727Z,10.96
2019-03-20T08:48:12.433Z,11.04
2019-03-20T08:50:41.872Z,11.22
2019-03-20T08:53:11.006Z,11.49
2019-03-20T08:55:40.038Z,11.50
2019-03-20T08:58:09.135Z,11.80
2019-03-20T09:00:38.217Z,12.00
2019-03-20T09:03:07.262Z,12.05
2019-03-20T09:05:36.953Z,12.53
2019-03-20T09:08:06.625Z,12.57
2019-03-20T09:10:35.671Z,13.06
2019-03-20T09:13:04.718Z,12.81
2019-03-20T09:15:33.766Z,12.46
2019-03-20T09:18:02.951Z,12.87
2019-03-20T09:20:32.041Z,12.56
2019-03-20T09:23:01.081Z,12.26
2019-03-20T09:25:30.899Z,11.94
2019-03-20T09:28:00.279Z,11.67
2019-03-20T09:30:29.636Z,11.59
2019-03-20T09:32:59.554Z,11.33
2019-03-20T09:35:28.868Z,11.43
2019-03-20T09:37:58.146Z,11.33
2019-03-20T09:40:27.208Z,11.48
2019-03-20T09:42:56.226Z,11.45
2019-03-20T09:45:25.370Z,11.44
2019-03-20T09:47:54.390Z,11.55
2019-03-20T09:50:23.959Z,11.56
2019-03-20T09:52:52.999Z,11.77
2019-03-20T09:55:22.029Z,11.72
2019-03-20T09:57:51.042Z,11.67
2019-03-20T10:00:21.929Z,11.64
2019-03-20T10:02:51.100Z,11.88
2019-03-20T10:05:20.154Z,11.93
2019-03-20T10:07:49.289Z,11.85
2019-03-20T10:10:19.646Z,12.07
2019-03-20T10:12:48.946Z,12.27
2019-03-20T10:15:18.597Z,12.27
2019-03-20T10:17:47.865Z,12.41
2019-03-20T10:20:18.239Z,12.34
2019-03-20T10:22:47.504Z,12.40
2019-03-20T10:25:16.520Z,12.40
2019-03-20T10:27:45.579Z,12.85
2019-03-20T10:30:17.016Z,13.82
2019-03-20T10:32:46.052Z,14.12
2019-03-20T10:35:15.340Z,15.07
2019-03-20T10:37:44.644Z,15.49
2019-03-20T10:40:15.329Z,15.90
2019-03-20T10:42:44.442Z,16.05
2019-03-20T10:45:13.872Z,16.99
2019-03-20T10:47:42.926Z,18.35
2019-03-20T10:50:14.016Z,19.36
2019-03-20T10:52:43.320Z,20.31
2019-03-20T10:55:12.441Z,21.12
2019-03-20T10:57:41.748Z,21.35
2019-03-20T11:00:21.076Z,21.46
2019-03-20T11:02:50.098Z,21.56
2019-03-20T11:05:19.669Z,20.61
2019-03-20T11:07:48.686Z,20.19
2019-03-20T11:10:21.729Z,19.98
2019-03-20T11:12:50.772Z,19.97
2019-03-20T11:15:19.839Z,19.33
2019-03-20T11:17:49.143Z,19.16
2019-03-20T11:20:18.205Z,19.05
2019-03-20T11:22:47.532Z,18.17
2019-03-20T11:25:17.608Z,18.19
2019-03-20T11:27:46.630Z,17.63
2019-03-20T11:30:18.354Z,17.44
2019-03-20T11:32:47.434Z,16.90
2019-03-20T11:35:16.833Z,16.83
2019-03-20T11:37:45.992Z,16.68
2019-03-20T11:40:23.326Z,16.25
2019-03-20T11:42:52.366Z,16.68
2019-03-20T11:45:23.566Z,16.57
2019-03-20T11:47:53.465Z,16.22
2019-03-20T11:50:24.786Z,16.79
2019-03-20T11:52:53.823Z,16.86
2019-03-20T11:55:23.134Z,17.15
2019-03-20T11:57:52.172Z,16.92
2019-03-20T12:00:21.232Z,18.32
2019-03-20T12:02:50.534Z,18.94
2019-03-20T12:05:22.537Z,18.90
2019-03-20T12:07:51.925Z,18.40
2019-03-20T12:10:21.892Z,18.53
2019-03-20T12:12:51.009Z,19.15
2019-03-20T12:15:20.276Z,18.35
2019-03-20T12:17:49.323Z,17.03
2019-03-20T12:20:19.032Z,16.13
2019-03-20T12:22:48.220Z,16.39
2019-03-20T12:25:19.155Z,16.15
2019-03-20T12:27:48.500Z,16.72
2019-03-20T12:30:19.608Z,16.79
2019-03-20T12:32:48.648Z,16.74
2019-03-20T12:35:18.090Z,16.68
2019-03-20T12:37:47.290Z,16.33
2019-03-20T12:40:18.975Z,16.57
2019-03-20T12:42:48.262Z,16.74
2019-03-20T12:45:17.892Z,17.63
2019-03-20T12:47:47.007Z,17.36
2019-03-20T12:50:16.394Z,18.18
2019-03-20T12:52:45.674Z,17.63
2019-03-20T12:55:14.958Z,18.02
2019-03-20T12:57:43.993Z,17.56
2019-03-20T13:00:17.984Z,16.83
2019-03-20T13:02:47.075Z,16.79
2019-03-20T13:05:16.483Z,17.08
2019-03-20T13:07:45.646Z,17.45
2019-03-20T13:10:16.168Z,16.81
2019-03-20T13:12:45.326Z,16.98
2019-03-20T13:15:16.638Z,16.77
2019-03-20T13:17:45.664Z,16.31
2019-03-20T13:20:14.934Z,16.31
2019-03-20T13:22:44.494Z,15.98
2019-03-20T13:25:14.133Z,16.48
2019-03-20T13:27:43.163Z,17.89
2019-03-20T13:30:33.647Z,18.66
2019-03-20T13:33:02.686Z,18.74
2019-03-20T13:35:31.748Z,18.35
2019-03-20T13:38:00.783Z,18.65
2019-03-20T13:40:29.790Z,19.71
2019-03-20T13:42:58.845Z,20.39
2019-03-20T13:45:27.895Z,20.12
2019-03-20T13:47:57.483Z,20.43
2019-03-20T13:50:27.044Z,20.16
2019-03-20T13:52:56.344Z,18.48
2019-03-20T13:55:25.427Z,17.83
2019-03-20T13:57:54.428Z,18.21
2019-03-20T14:00:23.788Z,17.67
2019-03-20T14:02:53.130Z,17.60
2019-03-20T14:05:22.193Z,18.22
2019-03-20T14:07:51.643Z,17.93
2019-03-20T14:10:25.349Z,17.46
2019-03-20T14:12:52.224Z,17.87
2019-03-20T14:15:21.475Z,17.01
2019-03-20T14:17:50.512Z,17.49
2019-03-20T14:20:21.665Z,17.65
2019-03-20T14:22:51.856Z,18.05
2019-03-20T14:25:21.166Z,17.58
2019-03-20T14:27:50.183Z,18.27
2019-03-20T14:30:23.994Z,18.15
2019-03-20T14:32:53.209Z,17.60
2019-03-20T14:35:22.525Z,17.71
2019-03-20T14:37:51.847Z,17.45
2019-03-20T14:40:23.071Z,16.60
2019-03-20T14:42:52.143Z,17.29
2019-03-20T14:45:21.188Z,16.94
2019-03-20T14:47:50.265Z,16.76
2019-03-20T14:50:21.185Z,16.39
2019-03-20T14:52:50.204Z,15.72
2019-03-20T14:55:19.552Z,16.08
2019-03-20T14:57:48.602Z,16.53
2019-03-20T15:00:19.613Z,16.37
2019-03-20T15:02:48.838Z,16.33
2019-03-20T15:05:18.189Z,16.69
2019-03-20T15:07:47.751Z,16.34
2019-03-20T15:10:17.803Z,16.55
2019-03-20T15:12:47.421Z,16.08
2019-03-20T15:15:37.373Z,16.37
2019-03-20T15:18:06.817Z,16.42
2019-03-20T15:20:35.853Z,16.35
2019-03-20T15:23:04.883Z,16.24
2019-03-20T15:25:33.931Z,16.14
2019-03-20T15:28:03.218Z,16.10
2019-03-20T15:30:32.240Z,16.22
2019-03-20T15:33:01.250Z,16.31
2019-03-20T15:35:30.263Z,16.25
2019-03-20T15:37:59.610Z,16.49
2019-03-20T15:40:29.216Z,17.19
2019-03-20T15:42:58.415Z,16.95
2019-03-20T15:45:27.449Z,16.90
2019-03-20T15:47:56.489Z,16.86
2019-03-20T15:50:25.530Z,16.67
2019-03-20T15:52:54.820Z,16.63
2019-03-20T15:55:26.394Z,16.81
2019-03-20T15:57:55.427Z,16.79
2019-03-20T16:00:24.474Z,16.97
2019-03-20T16:02:55.387Z,16.74
2019-03-20T16:05:24.417Z,16.33
2019-03-20T16:07:53.422Z,16.25
2019-03-20T16:10:22.775Z,16.09
2019-03-20T16:12:51.795Z,15.83
2019-03-20T16:15:21.043Z,15.66
2019-03-20T16:17:50.075Z,15.75
2019-03-20T16:20:19.422Z,15.74
2019-03-20T16:22:48.793Z,15.39
2019-03-20T16:25:17.855Z,15.35
2019-03-20T16:27:46.891Z,15.41
2019-03-20T16:30:18.492Z,14.88
2019-03-20T16:32:47.556Z,14.82
2019-03-20T16:35:16.839Z,15.14
2019-03-20T16:37:46.274Z,15.44
2019-03-20T16:40:25.119Z,15.43
2019-03-20T16:42:54.184Z,15.14
2019-03-20T16:45:26.044Z,15.00
2019-03-20T16:47:55.471Z,14.99
2019-03-20T16:50:24.483Z,14.84
2019-03-20T16:52:53.529Z,15.09
2019-03-20T16:55:22.651Z,15.03
2019-03-20T16:57:51.810Z,14.94
2019-03-20T17:00:22.619Z,14.66
2019-03-20T17:02:52.026Z,14.63
2019-03-20T17:05:21.429Z,14.90
2019-03-20T17:07:50.485Z,14.66
2019-03-20T17:10:25.041Z,14.86
2019-03-20T17:12:54.376Z,14.65
2019-03-20T17:15:24.863Z,14.54
2019-03-20T17:17:54.197Z,14.66
2019-03-20T17:20:23.263Z,14.70
2019-03-20T17:22:52.293Z,14.53
2019-03-20T17:25:21.635Z,14.61
2019-03-20T17:27:50.703Z,14.38
2019-03-20T17:30:21.975Z,14.39
2019-03-20T17:32:51.023Z,14.41
2019-03-20T17:35:20.121Z,14.55
2019-03-20T17:37:49.221Z,14.41
2019-03-20T17:40:19.414Z,14.23
2019-03-20T17:42:48.445Z,14.24
2019-03-20T17:45:18.452Z,14.11
2019-03-20T17:47:47.469Z,14.05
2019-03-20T17:50:19.131Z,14.00
2019-03-20T17:52:48.229Z,13.84
2019-03-20T17:55:36.647Z,14.17
2019-03-20T17:58:05.869Z,14.25
2019-03-20T18:00:40.168Z,14.18
2019-03-20T18:03:09.800Z,14.28
2019-03-20T18:05:39.014Z,14.24
2019-03-20T18:08:08.074Z,14.38
2019-03-20T18:10:37.517Z,14.25
2019-03-20T18:13:07.200Z,14.15
2019-03-20T18:15:36.921Z,14.08
2019-03-20T18:18:07.070Z,14.08
2019-03-20T18:20:36.655Z,14.09
2019-03-20T18:23:06.890Z,14.04
2019-03-20T18:25:36.464Z,13.98
2019-03-20T18:28:06.203Z,13.86
2019-03-20T18:30:36.019Z,13.81
2019-03-20T18:33:05.612Z,13.89
2019-03-20T18:35:34.670Z,13.79
2019-03-20T18:38:03.729Z,13.77
2019-03-20T18:40:32.749Z,13.85
2019-03-20T18:43:01.785Z,13.85
2019-03-20T18:45:30.813Z,13.79
2019-03-20T18:47:59.836Z,13.66
2019-03-20T18:50:28.854Z,13.62
2019-03-20T18:52:57.868Z,13.56
2019-03-20T18:55:26.869Z,13.53
2019-03-20T18:57:55.877Z,13.59
2019-03-20T19:00:26.105Z,13.57
2019-03-20T19:02:56.151Z,13.65
2019-03-20T19:05:34.829Z,13.66
2019-03-20T19:08:04.300Z,13.68
2019-03-20T19:10:33.524Z,13.62
2019-03-20T19:13:02.941Z,13.50
2019-03-20T19:15:32.306Z,13.37
2019-03-20T19:18:01.323Z,13.35
2019-03-20T19:20:30.337Z,13.29
2019-03-20T19:22:59.379Z,13.27
2019-03-20T19:25:28.449Z,13.29
2019-03-20T19:27:57.470Z,13.25
2019-03-20T19:30:27.067Z,13.33
2019-03-20T19:32:56.151Z,13.37
2019-03-20T19:35:25.494Z,13.41
2019-03-20T19:37:54.995Z,13.28
2019-03-20T19:40:24.434Z,13.19
2019-03-20T19:42:53.499Z,13.32
2019-03-20T19:45:23.013Z,13.45
2019-03-20T19:47:52.049Z,13.42
2019-03-20T19:50:21.119Z,13.45
2019-03-20T19:52:50.153Z,13.60
2019-03-20T19:55:19.184Z,13.43
2019-03-20T19:57:48.210Z,13.40
2019-03-20T20:00:17.261Z,13.33
2019-03-20T20:02:46.560Z,13.24
2019-03-20T20:05:16.407Z,13.14
2019-03-20T20:07:45.511Z,13.14
2019-03-20T20:10:14.559Z,13.25
2019-03-20T20:12:43.606Z,13.38
2019-03-20T20:15:14.935Z,13.33
2019-03-20T20:17:43.952Z,13.37
2019-03-20T20:20:14.723Z,13.21
2019-03-20T20:22:43.782Z,13.05
2019-03-20T20:25:12.812Z,12.92
2019-03-20T20:27:42.063Z,12.84
2019-03-20T20:30:13.525Z,12.77
2019-03-20T20:32:42.756Z,12.64
2019-03-20T20:35:11.879Z,12.68
2019-03-20T20:37:40.928Z,12.61
2019-03-20T20:40:12.057Z,12.57
2019-03-20T20:42:43.219Z,12.56
2019-03-20T20:45:13.045Z,12.52
2019-03-20T20:47:42.346Z,12.40
2019-03-20T20:50:11.683Z,12.38
2019-03-20T20:52:41.038Z,12.35
2019-03-20T20:55:13.348Z,12.25
2019-03-20T20:57:42.376Z,12.15
2019-03-20T21:00:14.516Z,12.06
2019-03-20T21:02:43.858Z,11.92
2019-03-20T21:05:12.874Z,11.83
2019-03-20T21:07:41.958Z,11.69
2019-03-20T21:10:14.792Z,11.72
2019-03-20T21:12:55.113Z,11.69
2019-03-20T21:15:36.567Z,11.59
2019-03-20T21:18:37.776Z,11.37
2019-03-20T21:21:07.353Z,11.30
2019-03-20T21:24:12.677Z,11.31
2019-03-20T21:26:55.537Z,11.18
2019-03-20T21:30:06.321Z,10.95
2019-03-20T21:32:39.761Z,10.95
2019-03-20T21:36:16.920Z,10.78
2019-03-20T21:38:46.524Z,10.67
2019-03-20T21:41:57.903Z,10.54
2019-03-20T21:45:14.242Z,10.51
2019-03-20T21:47:43.814Z,10.47
2019-03-20T21:51:21.121Z,10.47
2019-03-20T21:54:29.750Z,10.28
2019-03-20T21:57:22.090Z,10.28
2019-03-20T22:00:17.735Z,10.19
2019-03-20T22:02:47.291Z,10.19
2019-03-20T22:05:38.741Z,10.14
2019-03-20T22:08:08.803Z,10.04
2019-03-20T22:11:23.846Z,10.04
2019-03-20T22:14:06.754Z,10.00
2019-03-20T22:17:12.622Z,9.94
2019-03-20T22:20:13.083Z,9.88
2019-03-20T22:23:09.060Z,9.85
2019-03-20T22:26:20.962Z,9.79
2019-03-20T22:29:23.358Z,9.64
2019-03-20T22:32:48.216Z,9.60
2019-03-20T22:35:50.012Z,9.52
2019-03-20T22:39:12.554Z,9.24
2019-03-20T22:41:51.817Z,9.14
2019-03-20T22:44:22.080Z,9.16
2019-03-20T22:47:27.125Z,9.13
2019-03-20T22:50:29.976Z,9.07
2019-03-20T22:53:49.308Z,8.97
2019-03-20T22:56:58.163Z,8.89
2019-03-20T22:59:28.209Z,8.92
2019-03-20T23:02:42.634Z,8.81
2019-03-20T23:05:12.344Z,8.75
2019-03-20T23:07:41.942Z,8.69
2019-03-20T23:10:13.321Z,8.60
2019-03-20T23:12:43.628Z,8.53
2019-03-20T23:15:15.386Z,8.52
2019-03-20T23:17:45.054Z,8.42
2019-03-20T23:20:17.657Z,8.39
2019-03-20T23:22:47.246Z,8.28
2019-03-20T23:25:16.818Z,8.28
2019-03-20T23:27:46.386Z,8.23
2019-03-20T23:30:18.848Z,8.16
2019-03-20T23:32:48.402Z,8.22
2019-03-20T23:35:18.298Z,8.22
2019-03-20T23:37:47.862Z,8.15
2019-03-20T23:40:17.436Z,8.09
2019-03-20T23:42:47.392Z,8.10
2019-03-20T23:45:17.752Z,8.07
2019-03-20T23:47:57.493Z,8.01
2019-03-20T23:50:27.672Z,8.10
2019-03-20T23:52:57.596Z,8.11
2019-03-20T23:55:27.292Z,8.22
2019-03-20T23:57:57.154Z,8.19
